Santos Dumont Airport

SBRJ · Rio de Janeiro, Brazylia

Historia METAR SBRJ · Santos Dumont Airport

Poniżej widzisz METAR-y z ostatnich kilku dni. Wybierz rok, aby przeglądać starsze METAR-y, począwszy od roku 2007.

6 grudnia 2022

Czas Kod Pogoda Temp. Widoczność Sufit Wiatr METAR/SPECI
23:00
M
24 °C 8 km 1.500 ft Var 000° 0 kt METAR SBRJ 070200Z 00000KT 8000 BKN015 OVC090 24/22 Q1013
22:00
M
24 °C 5 km 1.500 ft Var 000° 0 kt METAR SBRJ 070100Z 00000KT 5000 -RA BR BKN015 OVC090 24/22 Q1013
21:00
M
25 °C 7 km 3.000 ft 300° 300° 3 kt METAR SBRJ 070000Z 30003KT 7000 FEW015 BKN030 OVC090 25/22 Q1013
20:00
M
23 °C 7 km 3.000 ft 300° 300° 3 kt METAR SBRJ 062300Z 30003KT 7000 FEW015 BKN030 OVC090 23/23 Q1012
19:00
I
23 °C 4,5 km 1.000 ft 150° 150° 4 kt METAR SBRJ 062200Z 15004KT 4500 -RA BR BKN010 BKN040 OVC080 23/22 Q1012
18:15
M
24 °C 5 km 1.000 ft 150° 150° 4 kt METAR SBRJ 062115Z 15004KT 110V180 5000 -RA BR BKN010 BKN040 OVC080 24/23 Q1012
18:00
M
25 °C 7 km 1.500 ft Var Var 2 kt METAR SBRJ 062100Z VRB02KT 7000 -RA BKN015 BKN040 OVC080 25/22 Q1012
17:00
V
25 °C 8 km 4.000 ft 180° 180° 5 kt METAR SBRJ 062000Z 18005KT 8000 -RA SCT018 BKN040 OVC090 25/22 Q1012
16:00
V
23 °C 8 km 4.000 ft 160° 160° 6 kt METAR SBRJ 061900Z 16006KT 8000 -RA SCT020 BKN040 OVC090 23/22 Q1012
15:00
V
22 °C 8 km 4.000 ft 160° 160° 6 kt METAR SBRJ 061800Z 16006KT 8000 -RA SCT020 BKN040 OVC090 22/21 Q1012
14:00
V
27 °C 10 km+ 10.000 ft 090° 090° 4 kt METAR SBRJ 061700Z 09004KT 9999 -RA SCT040 OVC100 27/21 Q1013
13:00
V
27 °C 9 km 10.000 ft 330° 330° 10 kt METAR SBRJ 061600Z 33010KT 9000 -RA FEW025 SCT040 OVC100 27/21 Q1013
12:00
V
28 °C 10 km+ 9.000 ft 330° 330° 10 kt METAR SBRJ 061500Z 33010KT 9999 SCT040 OVC090 28/21 Q1014
11:00
V
28 °C 10 km+ 9.000 ft 340° 340° 12 kt METAR SBRJ 061400Z 34012KT 9999 SCT040 OVC090 28/21 Q1014
10:00
V
28 °C 10 km+ 9.000 ft Var Var 2 kt METAR SBRJ 061300Z VRB02KT 9999 SCT040 OVC090 28/21 Q1014
09:00
V
27 °C 10 km+ 10.000 ft Var Var 2 kt METAR SBRJ 061200Z VRB02KT 9999 FEW040 OVC100 27/21 Q1013
08:00
V
27 °C 10 km+ 10.000 ft 330° 330° 6 kt METAR SBRJ 061100Z 33006KT 9999 FEW040 OVC100 27/20 Q1013
07:00
V
27 °C 10 km+ 10.000 ft 330° 330° 5 kt METAR SBRJ 061000Z 33005KT 9999 FEW040 BKN100 27/20 Q1012
06:00
V
25 °C 10 km+ 10.000 ft 340° 340° 3 kt METAR SBRJ 060900Z 34003KT 9999 SCT040 BKN100 25/23 Q1012
05:00
V
24 °C 9 km 10.000 ft 050° 050° 3 kt METAR SBRJ 060800Z 05003KT 360V080 9000 SCT040 BKN100 24/23 Q1011
04:00
V
25 °C 9 km 10.000 ft Var Var 1 kt METAR SBRJ 060700Z VRB01KT 9000 SCT030 BKN100 25/22 Q1010
03:00
V
25 °C 10 km+ 10.000 ft 020° 020° 3 kt METAR SBRJ 060600Z 02003KT 9999 SCT030 BKN100 25/22 Q1010
02:00
V
25 °C 10 km+ 10.000 ft 330° 330° 3 kt METAR SBRJ 060500Z 33003KT 9999 SCT030 BKN100 25/22 Q1010
01:00
V
24 °C 10 km+ 10.000 ft 150° 150° 3 kt METAR SBRJ 060400Z 15003KT 9999 FEW030 BKN100 24/21 Q1011
00:00
V
24 °C 10 km+ 10.000 ft 160° 160° 4 kt METAR SBRJ 060300Z 16004KT 9999 FEW030 BKN100 24/21 Q1012

5 grudnia 2022

Czas Kod Pogoda Temp. Widoczność Sufit Wiatr METAR/SPECI
23:00
V
25 °C 10 km+ - 170° 170° 5 kt METAR SBRJ 060200Z 17005KT 9999 FEW040 SCT100 25/22 Q1012
22:00
V
25 °C 10 km+ - 160° 160° 3 kt METAR SBRJ 060100Z 16003KT CAVOK 25/22 Q1012
21:00
V
25 °C 10 km+ - 140° 140° 6 kt METAR SBRJ 060000Z 14006KT CAVOK 25/22 Q1012
20:00
V
25 °C 10 km+ - 170° 170° 6 kt METAR SBRJ 052300Z 17006KT CAVOK 25/21 Q1011
19:00
V
25 °C 10 km+ - 150° 150° 8 kt METAR SBRJ 052200Z 15008KT CAVOK 25/22 Q1010
18:00
V
25 °C 10 km+ 10.000 ft 170° 170° 5 kt METAR SBRJ 052100Z 17005KT 080V210 9999 SCT045 BKN100 25/22 Q1010
17:00
V
29 °C 10 km+ 8.000 ft 020° 020° 11 kt METAR SBRJ 052000Z 02011KT 9999 FEW035 SCT050 BKN080 29/21 Q1009
16:00
V
30 °C 10 km+ 5.000 ft 020° 020° 11 kt METAR SBRJ 051900Z 02011KT 9999 FEW035TCU BKN050 BKN080 30/23 Q1009
15:00
V
30 °C 10 km+ 6.000 ft 350° 350° 8 kt METAR SBRJ 051800Z 35008KT 9999 FEW030 BKN060 BKN100 30/24 Q1010
14:00
V
32 °C 10 km+ 10.000 ft 360° 360° 6 kt METAR SBRJ 051700Z 36006KT 9999 FEW030 SCT040 BKN100 32/22 Q1010
13:00
V
31 °C 10 km+ 10.000 ft 020° 020° 6 kt METAR SBRJ 051600Z 02006KT 9999 FEW030 SCT040 BKN100 31/21 Q1011
12:00
V
29 °C 10 km+ 10.000 ft 100° 100° 4 kt METAR SBRJ 051500Z 10004KT 060V130 9999 FEW030 SCT040 BKN100 29/22 Q1011
11:00
V
27 °C 10 km+ - 140° 140° 6 kt METAR SBRJ 051400Z 14006KT 9999 FEW025 SCT100 27/22 Q1012
10:00
V
30 °C 10 km+ - Var Var 2 kt METAR SBRJ 051300Z VRB02KT 9999 FEW025 SCT100 30/22 Q1012
09:00
V
28 °C 10 km+ - 140° 140° 3 kt METAR SBRJ 051200Z 14003KT 9999 FEW025 SCT100 28/22 Q1012
08:00
V
0 °C 10 km+ - Var Var 2 kt METAR SBRJ 051100Z VRB02KT 9999 FEW025 SCT100 ///// Q1011
07:00
V
0 °C 10 km+ - 060° 060° 2 kt METAR SBRJ 051000Z 06002KT CAVOK ///// Q1011
06:00
V
0 °C 10 km+ - 130° 130° 4 kt METAR SBRJ 050900Z 13004KT CAVOK ///// Q1010
05:00
V
25 °C 10 km+ - 090° 090° 3 kt METAR SBRJ 050800Z 09003KT CAVOK 25/21 Q1009
04:00
V
25 °C 10 km+ - Var Var 2 kt METAR SBRJ 050700Z VRB02KT CAVOK 25/20 Q1009
03:00
V
25 °C 10 km+ - 100° 100° 4 kt METAR SBRJ 050600Z 10004KT CAVOK 25/21 Q1009
02:00
V
24 °C 10 km+ - 100° 100° 2 kt METAR SBRJ 050500Z 10002KT CAVOK 24/21 Q1009
01:00
V
25 °C 10 km+ - 110° 110° 6 kt METAR SBRJ 050400Z 11006KT CAVOK 25/22 Q1009
00:00
V
26 °C 10 km+ - Var Var 1 kt METAR SBRJ 050300Z VRB01KT CAVOK 26/21 Q1010

4 grudnia 2022

Czas Kod Pogoda Temp. Widoczność Sufit Wiatr METAR/SPECI
23:00
V
26 °C 10 km+ - 340° 340° 5 kt METAR SBRJ 050200Z 34005KT CAVOK 26/21 Q1010
22:00
V
27 °C 10 km+ - 330° 330° 5 kt METAR SBRJ 050100Z 33005KT 300V010 9999 FEW040 SCT100 27/21 Q1010
21:00
V
27 °C 10 km+ 10.000 ft 010° 010° 4 kt METAR SBRJ 050000Z 01004KT 300V060 9999 FEW040 BKN100 27/22 Q1010
20:00
V
28 °C 10 km+ 8.000 ft Var Var 4 kt METAR SBRJ 042300Z VRB04KT 9999 FEW040 BKN080 28/21 Q1009
19:00
V
28 °C 10 km+ - 070° 070° 5 kt METAR SBRJ 042200Z 07005KT 040V100 9999 FEW030 FEW035TCU SCT080 28/22 Q1008
18:00
V
29 °C 10 km+ - 060° 060° 12 kt METAR SBRJ 042100Z 06012KT 9999 FEW030 29/23 Q1007
17:15
V
30 °C 10 km+ - 070° 070° 10 kt METAR SBRJ 042015Z 07010KT 9999 FEW030 30/23 Q1007
17:00
V
30 °C 10 km+ - 140° 140° 5 kt METAR SBRJ 042000Z 14005KT 9999 FEW030 SCT100 30/23 Q1007
16:00
V
29 °C 10 km+ 10.000 ft 150° 150° 7 kt METAR SBRJ 041900Z 15007KT 9999 FEW030 BKN100 29/22 Q1007
15:00
V
30 °C 10 km+ - 160° 160° 7 kt METAR SBRJ 041800Z 16007KT 9999 FEW035 SCT100 30/21 Q1008
14:00
V
29 °C 10 km+ 10.000 ft 150° 150° 7 kt METAR SBRJ 041700Z 15007KT 9999 FEW030 FEW035TCU BKN100 29/22 Q1009
13:00
V
28 °C 10 km+ 8.000 ft 150° 150° 7 kt METAR SBRJ 041600Z 15007KT 9999 SCT030 BKN080 28/22 Q1010
12:00
V
29 °C 10 km+ 10.000 ft 150° 150° 6 kt METAR SBRJ 041500Z 15006KT 9999 FEW025 SCT050 BKN100 29/23 Q1010
11:00
V
28 °C 10 km+ 10.000 ft 140° 140° 5 kt METAR SBRJ 041400Z 14005KT 9999 FEW025 BKN100 28/22 Q1011
10:00
V
28 °C 10 km+ - 150° 150° 5 kt METAR SBRJ 041300Z 15005KT CAVOK 28/22 Q1011
09:00
V
27 °C 10 km+ - 110° 110° 4 kt METAR SBRJ 041200Z 11004KT CAVOK 27/22 Q1011
08:00
V
27 °C 10 km+ - 150° 150° 2 kt METAR SBRJ 041100Z 15002KT CAVOK 27/21 Q1011
07:00
V
25 °C 10 km+ - 030° 030° 4 kt METAR SBRJ 041000Z 03004KT 340V050 CAVOK 25/21 Q1011

My i strony trzecie śledzimy Twoje zachowanie internetowe na naszej stronie za pomocą plików cookie. Jeśli kontynuujesz, zakładamy, że zgadzasz się z naszymi polityka plików cookie.